Etusivu
METAR-TAF:

METAR-TAF

Lentoasemat :

Chengdu, Kiina

Chengdu Shuangliun kansainvälinen lentoasema

Leveyspiiri: 30-40N, Pituuspiiri: 104-01E, korkeus merenpinnasta: 508 m

Tämänhetkinen sää

Tämä raportti tehtiin 40 minuuttia sitten, kello 10.00 UTC
Tuuli 4 kn pohjoisesta, vaihdellen luoteen ja pohjoisen/koillisen välillä
Lämpötila 27°C
Kosteus 62%
Ilmanpaine 1012 hPa
Näkyvyys 10 km tai enemmän
ei pilviä alle 1500 m:ssä eikä cumulonimbus-pilviä

METAR: ZUUU 231000Z 35002MPS 310V030 CAVOK 27/19 Q1012 NOSIG

Aika: 18:40 (10:40 UTC)

Sääennuste

Tämä raportti tehtiin 8 tuntia ja 10 minuuttia sitten, kello 02.30 UTC
Ennuste voimassa 23. päivästä klo 06 UTC - 24. päivään klo 06 UTC
Tuuli 6 kn etelästä/lounaasta
Näkyvyys: 8000 m
Hajanaisia pilviä 5000 ft:n korkeudessa

TAF: ZUUU 230230Z 2306/2406 20003MPS 8000 SCT050 TX28/2307Z TN19/2321Z

Säähavainnot ja -ennusteet yli 4000 lentoasemalta (METAR- ja TAF-raportit).

Käytössä olevat sääasemat on merkitty karttaan keltaisilla ja punaisilla pisteillä.

Aseta hiiri pisteen päälle nähdäksesi sääaseman nimen.

Klikkaa sitten nähdäksesi säähavainnot ja -ennusteet.

Kartan vaihtaminen: klikkaa mustalla rastilla varustettuja vihreitä pisteitä, niin voit zoomata sisään; viivalla varustettua vihreää pistettä, niin voit zoomata ulos tai vihreitä nuolia, niin pääset viereisille kartoille.


METAR-TAF: